Welcome to our Virtual Airline
Sign-in:

Flight MFC6961

  • Submitted By: Karl-Heinz Klotz
  • Departure Airport: Point Baker SPB (KPB)
  • Arrival Airport: Cape Pole SPB (Z71)
  • Aircraft: C185F (N015MM)
  • Flight Time: 00.34.45
  • Date Submitted: 2019/04/08
  • Route: FOLLOW THE TOUR FP
  • Status: Accepted
Flight Details
Gross Revenue:
(3 load / $ 49.00 per unit
$ 147.00
Fuel Cost:
(20.4117 fuel used @ 5.1 / unit)
$ 104.10

Additional Log Information:

View Log

FS[13:38] ----- Flight Opened -----
FS[13:38] Cigar Box - 1.1.4.0
FS[13:38] FS: Prepar3D V4
FS[13:38] FSUIPC: v5,15
FS[13:38] Flight Number: MFC6961
FS[13:38] FS Aircraft: C185F SKYWAGON AMPHIBIAN
FS[13:38] FS Model: C185
FS[13:38] FS Type: Cessna
FS[13:38] Departure: KPB
FS[13:38] Arrival: Z71
FS[13:38] Flight Level: 1500
FS[13:38] Flight Type: H
FS[13:38] Passengers: 3
FS[13:38] FOB: 98 lbs
FS[13:38] Gate: n/a
FS[13:38] NOTE: Parking Brake Ignored
FS[13:38] Crash Detection: Disabled
FS[13:38] Engines: 1 Piston
FS[13:38] NOTE: Boarding has started
FS[13:38] Landing Gear: Retracted
FS[13:38] Light Data: Navigation ON
FS[13:38] Light Data: Beacon ON
FS[13:38] Light Data: Strobe lights ON
FS[13:38] Main Door Closed
FS[13:38] COM1: 121.05
FS[13:38] COM2: 127.80
FS[13:38] Transponder: 1200
FS[13:38] NAV1: 115.90
FS[13:38] NAV2: 110.60
FS[13:38] ADF1: 396.0
FS[13:38] ADF2: 240.0
FS[13:38] Navigation Mode: NAV
FS[13:38] Engine 1: Started
FS[13:38] Flaps: Position 3
FS[13:38] Flaps: Position 2
FS[13:38] Flaps: Position 1
FS[13:38] Flaps: Position 0
FS[13:38] NOTE: Taxi started
FS[13:39] NOTE: ----- TAKE OFF -----
FS[13:39] GS: 34 knots
FS[13:39] TAS: 36 knots
FS[13:39] IAS: 37 knots
FS[13:39] VS: 23 fpm
FS[13:39] FOB: 98 lbs
FS[13:39] Heading: 173°
FS[13:39] Pitch: 6°
FS[13:39] Bank: 0°
FS[13:39] Aircraft Weight: 2203,83 lbs
FS[13:39] Nearest Airport: KPB
FS[13:39] Distance: 0,86 miles
FS[13:39] Runway: ???
FS[13:39] Ground Surface: Water
FS[13:39] Ground Condition: Normal
FS[13:39] NOTE: Weather Report
FS[13:39] Wind Heading: 240°
FS[13:39] Wind Speed: 2 knots
FS[13:39] OAT: 9° C
FS[13:39] TAT: 9° C
FS[13:39] Precipitation: None
FS[13:39] Dew Point: 3° C
FS[13:39] Visibility: 50 miles
FS[13:39] METAR: KPBF 080753Z AUTO 00000KT 10SM BKN044 BKN100 16/14 A2990 RMK AO2 SLP124 T01560144KPBG 080753Z AUTO 01007KT 10SM 05/04 A2998 RMK AO2 SLP152 T00500039 $KPBH 080815Z AUTO 00000KT 3SM BR BKN011 04/04 A2978 RMK AO2 T00400040KPBI 080753Z 13010KT 10SM SCT022 SCT250 24/20 A3006 RMK AO2 SLP180 T02440200 $KPBX 080815Z AUTO 00000KT 10SM BKN120 17/15 A2999 RMK AO2 T01670151
FS[13:39] NOTE: Climb started
FS[13:39] View Mode: Virtual Cockpit
FS[13:40] NOTE: TOC reached
FS[13:40] NOTE: Cruise started
FS[13:40] GS: 108 knots
FS[13:40] TAS: 110 knots
FS[13:40] IAS: 111 knots
FS[13:40] VS: 197 fpm
FS[13:40] FOB: 96 lbs
FS[13:40] Heading: 138°
FS[13:40] Pitch: 1°
FS[13:40] Bank: 11°
FS[13:40] Aircraft Weight: 2201,87 lbs
FS[13:41] NOTE: TOD reached
FS[13:41] NOTE: Descent started
FS[13:41] GS: 116 knots
FS[13:41] TAS: 119 knots
FS[13:41] IAS: 120 knots
FS[13:41] VS: -401 fpm
FS[13:41] FOB: 95 lbs
FS[13:41] Heading: 214°
FS[13:41] Pitch: 1°
FS[13:41] Bank: -8°
FS[13:41] Aircraft Weight: 2199,57 lbs
FS[13:41] NOTE: On approach
FS[13:56] Recovery: Flight Saved
FS[14:00] Flaps: Position 1
FS[14:00] GS: 83 knots
FS[14:00] TAS: 85 knots
FS[14:00] IAS: 86 knots
FS[14:00] VS: -386 fpm
FS[14:00] Flaps: Position 2
FS[14:00] GS: 77 knots
FS[14:00] TAS: 80 knots
FS[14:00] IAS: 81 knots
FS[14:00] VS: -263 fpm
FS[14:00] Flaps: Position 1
FS[14:00] GS: 66 knots
FS[14:00] TAS: 67 knots
FS[14:00] IAS: 68 knots
FS[14:00] VS: -267 fpm
FS[14:00] Flaps: Position 2
FS[14:00] GS: 69 knots
FS[14:00] TAS: 72 knots
FS[14:00] IAS: 73 knots
FS[14:00] VS: 592 fpm
FS[14:01] Flaps: Position 3
FS[14:01] GS: 68 knots
FS[14:01] TAS: 69 knots
FS[14:01] IAS: 71 knots
FS[14:01] VS: -306 fpm
FS[14:01] Flaps: Position 4
FS[14:01] GS: 58 knots
FS[14:01] TAS: 59 knots
FS[14:01] IAS: 60 knots
FS[14:01] VS: -677 fpm
FS[14:01] NOTE: ----- LANDED -----
FS[14:01] Landing Rate: -322,19 fpm
FS[14:01] GS: 50 knots
FS[14:01] TAS: 51 knots
FS[14:01] IAS: 52 knots
FS[14:01] VS: -320 fpm
FS[14:01] FOB: 66 lbs
FS[14:01] Heading: 349°
FS[14:01] Pitch: 0°
FS[14:01] Bank: 0°
FS[14:01] Aircraft Weight: 2171,28 lbs
FS[14:01] Nearest Airport: TF04
FS[14:01] Distance: 0,18 miles
FS[14:01] Runway: ???
FS[14:01] Ground Surface: Water
FS[14:01] Ground Condition: Normal
FS[14:01] NOTE: Weather Report
FS[14:01] Wind Heading: 249°
FS[14:01] Wind Speed: 2 knots
FS[14:01] OAT: 6° C
FS[14:01] TAT: 6° C
FS[14:01] Precipitation: None
FS[14:01] Dew Point: 0° C
FS[14:01] Visibility: 45 miles
FS[14:01] METAR: No METAR available for Z71.
FS[14:01] View Mode: Virtual Cockpit
FS[14:02] NOTE: Taxi started
FS[14:02] Flaps: Position 1
FS[14:02] Flaps: Position 0
FS[14:03] View Mode: Virtual Cockpit
FS[14:10] Flaps: Position 1
FS[14:10] GS: 85 knots
FS[14:10] TAS: 85 knots
FS[14:10] IAS: 86 knots
FS[14:10] VS: -119 fpm
FS[14:11] Flaps: Position 2
FS[14:11] GS: 79 knots
FS[14:11] TAS: 80 knots
FS[14:11] IAS: 81 knots
FS[14:11] VS: -635 fpm
FS[14:12] Flaps: Position 3
FS[14:12] GS: 68 knots
FS[14:12] TAS: 69 knots
FS[14:12] IAS: 70 knots
FS[14:12] VS: -462 fpm
FS[14:12] Flaps: Position 4
FS[14:12] GS: 56 knots
FS[14:12] TAS: 58 knots
FS[14:12] IAS: 59 knots
FS[14:12] VS: -368 fpm
FS[14:12] NOTE: ----- LANDED -----
FS[14:12] Landing Rate: -146,87 fpm
FS[14:12] GS: 42 knots
FS[14:12] TAS: 43 knots
FS[14:12] IAS: 44 knots
FS[14:12] VS: -143 fpm
FS[14:12] FOB: 53 lbs
FS[14:12] Heading: 152°
FS[14:12] Pitch: 5°
FS[14:12] Bank: 0°
FS[14:12] Aircraft Weight: 2158,28 lbs
FS[14:12] Nearest Airport: Z71
FS[14:12] Distance: 0,12 miles
FS[14:12] Runway: ???
FS[14:12] Ground Surface: Water
FS[14:12] Ground Condition: Normal
FS[14:12] NOTE: Weather Report
FS[14:12] Wind Heading: 251°
FS[14:12] Wind Speed: 2 knots
FS[14:12] OAT: 6° C
FS[14:12] TAT: 6° C
FS[14:12] Precipitation: None
FS[14:12] Dew Point: 0° C
FS[14:12] Visibility: 45 miles
FS[14:12] METAR: No METAR available for Z71.
FS[14:12] View Mode: Virtual Cockpit
FS[14:13] Engine 1: Stopped
FS[14:13] Flaps: Position 3
FS[14:13] Flaps: Position 1
FS[14:13] Flaps: Position 0
FS[14:14] Gate: n/a
FS[14:14] NOTE: Flight Completed
FS[14:14] FS Aircraft: C185F SKYWAGON AMPHIBIAN
FS[14:14] FS Model: C185
FS[14:14] FS Type: Cessna
FS[14:14] FOB: 53 lbs
FS[14:14] Fuel Used: 45 lbs
FS[14:14] Flight Time: 00:34:45
FS[14:14] Flight Time (Dawn): 00:00:00
FS[14:14] Flight Time (Day): 00:34:45
FS[14:14] Flight Time (Dusk): 00:00:00
FS[14:14] Flight Time (Night): 00:00:00
FS[14:14] Total Landings: 2
FS[14:14] MaxSim Rate: 0x
FS[14:14] Cigar Box - 1.1.4.0
FS[14:14] ----- Flight Closed -----

Route Map